Time;durP1;ratioP1;P1;durP2;ratioP2;P2;SDS_P1;SDS_P2;PMS_P1;PMS_P2;Temp;Humidity;BMP_temperature;BMP_pressure;BME280_temperature;BME280_humidity;BME280_pressure;Samples;Min_cycle;Max_cycle;Signal;HPM_P1;HPM_P2
2021/04/22 00:02:01;;;;;;;6.13;3.20;;;6.50;99.90;;;;;;5079787;28;20218;-80
2021/04/22 00:04:27;;;;;;;10.27;3.28;;;6.10;93.40;;;;;;5078964;28;20206;-80
2021/04/22 00:06:54;;;;;;;6.25;2.60;;;6.10;94.00;;;;;;5079278;28;20190;-80
2021/04/22 00:09:21;;;;;;;7.20;4.10;;;6.10;93.20;;;;;;5080036;28;20264;-80
2021/04/22 00:11:47;;;;;;;10.75;5.00;;;6.00;93.60;;;;;;5079037;28;20191;-80
2021/04/22 00:14:15;;;;;;;8.75;3.20;;;6.10;94.40;;;;;;5069133;28;20229;-80
2021/04/22 00:16:42;;;;;;;9.57;6.22;;;6.00;94.50;;;;;;5078271;28;20203;-80
2021/04/22 00:19:09;;;;;;;7.28;4.00;;;5.70;99.90;;;;;;5078273;28;20286;-80
2021/04/22 00:21:35;;;;;;;13.48;3.30;;;6.10;99.90;;;;;;5076179;28;20191;-80
2021/04/22 00:24:02;;;;;;;8.80;3.10;;;5.80;99.90;;;;;;5075856;28;20214;-81
2021/04/22 00:26:28;;;;;;;12.23;4.03;;;6.00;94.60;;;;;;5080018;28;20207;-80
2021/04/22 00:28:54;;;;;;;7.45;3.58;;;6.00;93.80;;;;;;5071567;28;20215;-80
2021/04/22 00:31:20;;;;;;;7.53;3.28;;;6.30;99.90;;;;;;5065657;28;20207;-80
2021/04/22 00:33:47;;;;;;;7.40;3.45;;;;;;;;;;5065806;28;20203;-80
2021/04/22 00:36:14;;;;;;;12.35;4.05;;;5.90;99.90;;;;;;5064490;28;20628;-82
2021/04/22 00:38:41;;;;;;;9.60;3.65;;;6.20;99.90;;;;;;5062580;28;20231;-81
2021/04/22 00:41:07;;;;;;;6.78;3.70;;;6.50;99.90;;;;;;5062722;28;20207;-81
2021/04/22 00:43:34;;;;;;;13.65;3.38;;;6.20;99.90;;;;;;5062204;28;20195;-81
2021/04/22 00:46:00;;;;;;;9.82;3.53;;;6.40;93.60;;;;;;5062018;28;20210;-82
2021/04/22 00:48:27;;;;;;;6.65;3.50;;;6.40;92.90;;;;;;5062249;28;20250;-81
2021/04/22 00:50:54;;;;;;;6.50;3.47;;;6.20;99.90;;;;;;5061864;28;20203;-81
2021/04/22 00:53:23;;;;;;;9.48;3.88;;;6.40;93.50;;;;;;5061093;28;20202;-81
2021/04/22 00:55:50;;;;;;;11.65;4.82;;;6.30;99.90;;;;;;5061810;28;20207;-81
2021/04/22 00:58:16;;;;;;;19.85;4.00;;;6.40;93.30;;;;;;5061243;28;20238;-80
2021/04/22 01:00:44;;;;;;;13.80;3.70;;;6.40;93.50;;;;;;5061434;28;20571;-80
2021/04/22 01:03:10;;;;;;;9.43;3.00;;;6.50;99.90;;;;;;5060810;28;20203;-81
2021/04/22 01:05:39;;;;;;;16.63;4.18;;;6.10;99.90;;;;;;5061372;28;20199;-82
2021/04/22 01:08:06;;;;;;;8.68;3.47;;;5.90;99.90;;;;;;5060216;28;20227;-81
2021/04/22 01:10:33;;;;;;;9.70;3.85;;;6.30;99.90;;;;;;5061168;28;20188;-81
2021/04/22 01:13:00;;;;;;;12.07;4.20;;;6.40;94.40;;;;;;5063736;28;20199;-81
2021/04/22 01:15:27;;;;;;;6.47;3.50;;;6.20;99.90;;;;;;5069544;28;20206;-81
2021/04/22 01:17:54;;;;;;;7.07;3.90;;;6.30;99.90;;;;;;5068624;28;20237;-81
2021/04/22 01:20:24;;;;;;;10.27;3.95;;;6.40;99.90;;;;;;5068877;28;20200;-80
2021/04/22 01:22:52;;;;;;;10.15;4.35;;;6.20;94.90;;;;;;5062363;28;20325;-82
2021/04/22 01:25:25;;;;;;;6.13;3.03;;;6.30;99.90;;;;;;5058543;28;20207;-79
2021/04/22 01:27:51;;;;;;;10.50;3.40;;;6.50;99.90;;;;;;5059396;28;20215;-79
2021/04/22 01:30:21;;;;;;;10.80;3.50;;;6.40;95.50;;;;;;5058564;28;20226;-80
2021/04/22 01:32:47;;;;;;;14.10;3.70;;;6.60;99.90;;;;;;5059637;28;20206;-80
2021/04/22 01:35:17;;;;;;;6.65;3.10;;;6.40;99.90;;;;;;5062301;28;20344;-80
2021/04/22 01:37:44;;;;;;;10.50;3.22;;;6.40;95.90;;;;;;5062301;28;20219;-79
2021/04/22 01:40:13;;;;;;;8.75;3.60;;;6.10;99.90;;;;;;5062808;28;20203;-81
2021/04/22 01:42:39;;;;;;;11.98;3.30;;;5.90;99.90;;;;;;5060347;28;20203;-81
2021/04/22 01:45:08;;;;;;;10.40;4.05;;;6.20;99.90;;;;;;5065444;28;20207;-80
2021/04/22 01:47:34;;;;;;;10.73;4.20;;;6.00;99.90;;;;;;5060648;28;20236;-80
2021/04/22 01:50:02;;;;;;;9.73;3.95;;;6.20;96.90;;;;;;5061236;28;20230;-81
2021/04/22 01:52:30;;;;;;;7.80;3.38;;;6.30;99.90;;;;;;5060631;28;20350;-81
2021/04/22 01:54:56;;;;;;;5.05;3.35;;;6.30;97.50;;;;;;5059810;28;20696;-80
2021/04/22 01:57:23;;;;;;;17.55;4.53;;;6.40;98.00;;;;;;5059315;28;20218;-80
2021/04/22 01:59:49;;;;;;;9.13;3.40;;;6.40;97.90;;;;;;5063460;28;20230;-80
2021/04/22 02:02:16;;;;;;;7.97;3.50;;;6.20;97.90;;;;;;5064332;28;20678;-80
2021/04/22 02:04:42;;;;;;;6.93;3.40;;;6.20;98.60;;;;;;5064332;28;20210;-81
2021/04/22 02:07:08;;;;;;;9.80;4.13;;;6.10;99.90;;;;;;5060284;28;20723;-81
2021/04/22 02:09:35;;;;;;;10.75;3.17;;;;;;;;;;5074251;22;20237;-85
2021/04/22 02:12:01;;;;;;;10.65;4.05;;;6.00;99.90;;;;;;5061853;28;20207;-87
2021/04/22 02:14:28;;;;;;;11.43;4.10;;;6.10;99.00;;;;;;5061930;28;20214;-87
2021/04/22 02:16:54;;;;;;;13.50;4.28;;;6.50;99.90;;;;;;5061240;28;20576;-87
2021/04/22 02:19:21;;;;;;;8.82;3.97;;;;;;;;;;5061452;28;20222;-85
2021/04/22 02:21:47;;;;;;;18.77;4.32;;;6.30;99.90;;;;;;5062097;28;20203;-88
2021/04/22 02:24:13;;;;;;;8.20;3.90;;;5.90;99.90;;;;;;5066660;28;20203;-86
2021/04/22 02:26:45;;;;;;;14.98;5.25;;;6.10;99.80;;;;;;5078107;28;20199;-87
2021/04/22 02:29:11;;;;;;;9.90;5.35;;;;;;;;;;5078412;28;20207;-87
2021/04/22 02:31:38;;;;;;;5.32;3.30;;;6.50;99.90;;;;;;5078261;28;20209;-87
2021/04/22 02:34:05;;;;;;;9.27;4.22;;;;;;;;;;5060395;28;20223;-87
2021/04/22 02:36:31;;;;;;;9.05;4.32;;;;;;;;;;5061177;28;20207;-86
2021/04/22 02:38:57;;;;;;;15.55;4.55;;;5.80;99.90;;;;;;5065086;28;20226;-86
2021/04/22 02:41:24;;;;;;;13.02;3.95;;;;;;;;;;5066514;28;20213;-86
2021/04/22 02:43:51;;;;;;;16.75;5.18;;;;;;;;;;5078360;28;20194;-86
2021/04/22 02:46:17;;;;;;;9.13;3.80;;;;;;;;;;5066550;28;20253;-84
2021/04/22 02:48:44;;;;;;;9.48;4.95;;;5.90;99.90;;;;;;5059009;28;20225;-85
2021/04/22 02:51:10;;;;;;;8.73;4.13;;;6.10;99.90;;;;;;5058335;28;20218;-84
2021/04/22 02:53:36;;;;;;;12.13;4.25;;;6.50;99.90;;;;;;5066517;28;20206;-85
2021/04/22 02:56:03;;;;;;;17.65;4.55;;;6.20;99.90;;;;;;5063861;28;20203;-86
2021/04/22 02:58:29;;;;;;;12.75;4.95;;;6.20;99.90;;;;;;5062194;28;20233;-85
2021/04/22 03:00:56;;;;;;;11.25;3.40;;;6.30;99.90;;;;;;5061717;28;20239;-86
2021/04/22 03:03:22;;;;;;;13.32;4.00;;;;;;;;;;5061440;28;20450;-87
2021/04/22 03:05:50;;;;;;;20.55;4.50;;;6.20;99.90;;;;;;5062893;28;20204;-87
2021/04/22 03:08:16;;;;;;;12.98;4.40;;;6.10;99.90;;;;;;5061977;28;20566;-86
2021/04/22 03:10:43;;;;;;;12.18;3.60;;;6.10;99.90;;;;;;5061515;28;20195;-87
2021/04/22 03:13:10;;;;;;;12.50;5.00;;;6.00;99.90;;;;;;5060818;28;20654;-86
2021/04/22 03:15:42;;;;;;;12.50;4.10;;;;;;;;;;5059122;28;20444;-87
2021/04/22 03:18:09;;;;;;;7.90;3.17;;;6.00;99.90;;;;;;5070193;28;20213;-86
2021/04/22 03:20:35;;;;;;;12.32;3.05;;;5.70;99.90;;;;;;5075724;28;20203;-85
2021/04/22 03:23:04;;;;;;;10.18;4.38;;;6.00;99.90;;;;;;5063841;28;20727;-87
2021/04/22 03:25:30;;;;;;;7.35;3.17;;;;;;;;;;5062861;28;20191;-88
2021/04/22 03:27:57;;;;;;;12.43;4.60;;;5.90;99.90;;;;;;5063557;28;20203;-87
2021/04/22 03:30:27;;;;;;;9.35;4.47;;;6.00;99.90;;;;;;5073304;28;20206;-86
2021/04/22 03:32:53;;;;;;;7.25;3.10;;;6.00;99.90;;;;;;5076986;28;20203;-85
2021/04/22 03:35:19;;;;;;;8.57;3.83;;;6.10;99.90;;;;;;5072448;28;20577;-86
2021/04/22 03:37:46;;;;;;;11.95;4.50;;;;;;;;;;5065046;28;20474;-87
2021/04/22 03:40:16;;;;;;;9.02;3.63;;;6.00;99.90;;;;;;5064205;28;20469;-86
2021/04/22 03:42:42;;;;;;;15.82;4.50;;;;;;;;;;5064080;28;20521;-86
2021/04/22 03:45:11;;;;;;;12.20;3.77;;;5.80;99.90;;;;;;5063588;28;20446;-86
2021/04/22 03:47:37;;;;;;;11.98;4.55;;;5.90;99.90;;;;;;5063915;28;20480;-86
2021/04/22 03:50:05;;;;;;;10.05;4.32;;;6.00;99.90;;;;;;5063627;28;20245;-86
2021/04/22 03:52:32;;;;;;;8.98;3.95;;;6.10;99.90;;;;;;5063356;28;20207;-86
2021/04/22 03:54:58;;;;;;;18.95;5.70;;;5.70;99.90;;;;;;5064239;28;20211;-85
2021/04/22 03:57:25;;;;;;;14.73;4.50;;;6.00;99.90;;;;;;5065624;28;20219;-86
2021/04/22 03:59:51;;;;;;;12.05;3.83;;;5.90;99.90;;;;;;5072888;28;20233;-85
2021/04/22 04:02:18;;;;;;;13.90;3.92;;;5.70;99.90;;;;;;5079733;28;20199;-85
2021/04/22 04:04:44;;;;;;;5.82;3.30;;;6.10;99.90;;;;;;5076346;28;20666;-86
2021/04/22 04:07:11;;;;;;;10.02;4.18;;;5.70;99.90;;;;;;5064792;28;20207;-87
2021/04/22 04:09:37;;;;;;;10.98;4.05;;;;;;;;;;5064202;28;20231;-86
2021/04/22 04:12:04;;;;;;;6.80;3.25;;;5.90;99.90;;;;;;5063701;28;20206;-85
2021/04/22 04:14:32;;;;;;;11.23;3.92;;;5.80;99.90;;;;;;5063302;28;20512;-85
2021/04/22 04:16:59;;;;;;;12.85;4.13;;;;;;;;;;5064984;28;20227;-84
2021/04/22 04:19:25;;;;;;;8.70;3.85;;;5.60;99.90;;;;;;5066204;28;20227;-87
2021/04/22 04:21:51;;;;;;;13.63;4.25;;;6.20;99.90;;;;;;5072434;28;20203;-88
2021/04/22 04:24:18;;;;;;;10.18;4.10;;;;;;;;;;5076487;28;20199;-85
2021/04/22 04:26:44;;;;;;;9.73;3.65;;;;;;;;;;5073962;28;20424;-86
2021/04/22 04:29:11;;;;;;;14.88;4.30;;;;;;;;;;5068658;28;20260;-87
2021/04/22 04:31:38;;;;;;;11.15;4.13;;;;;;;;;;5064139;28;20199;-86
2021/04/22 04:34:05;;;;;;;14.68;4.50;;;;;;;;;;5064752;28;20207;-86
2021/04/22 04:36:32;;;;;;;11.13;4.60;;;;;;;;;;5071695;28;20547;-85
2021/04/22 04:38:58;;;;;;;11.07;3.90;;;;;;;;;;5062835;28;20284;-86
2021/04/22 04:41:25;;;;;;;13.05;4.57;;;;;;;;;;5066233;28;20203;-89
2021/04/22 04:43:51;;;;;;;14.50;4.38;;;5.90;99.90;;;;;;5077369;28;20195;-85
2021/04/22 04:46:18;;;;;;;12.93;3.60;;;5.90;99.90;;;;;;5068355;28;20207;-85
2021/04/22 04:48:45;;;;;;;9.02;3.13;;;5.90;99.90;;;;;;5064417;28;20227;-87
2021/04/22 04:51:11;;;;;;;10.13;3.45;;;6.30;99.90;;;;;;5064086;28;20203;-87
2021/04/22 04:53:37;;;;;;;10.05;3.42;;;5.80;99.90;;;;;;5066253;28;20207;-86
2021/04/22 04:56:04;;;;;;;17.17;4.75;;;;;;;;;;5070773;28;20261;-86
2021/04/22 04:58:30;;;;;;;12.95;3.90;;;6.50;99.90;;;;;;5070284;28;20666;-88
2021/04/22 05:00:57;;;;;;;9.75;3.67;;;;;;;;;;5068604;28;20546;-87
2021/04/22 05:03:23;;;;;;;17.38;3.42;;;6.10;99.90;;;;;;5070976;28;20191;-87
2021/04/22 05:05:51;;;;;;;13.32;4.07;;;;;;;;;;5069328;28;20743;-87
2021/04/22 05:08:17;;;;;;;15.15;4.05;;;6.30;99.90;;;;;;5076198;28;20203;-86
2021/04/22 05:10:44;;;;;;;5.70;3.22;;;;;;;;;;5076208;28;20206;-87
2021/04/22 05:13:10;;;;;;;10.60;4.00;;;;;;;;;;5077024;28;20207;-85
2021/04/22 05:15:36;;;;;;;10.45;4.15;;;6.30;99.90;;;;;;5075722;28;20214;-87
2021/04/22 05:18:02;;;;;;;16.13;4.38;;;6.50;99.90;;;;;;5077510;28;20218;-87
2021/04/22 05:20:32;;;;;;;11.00;3.83;;;;;;;;;;5074408;28;20207;-87
2021/04/22 05:22:59;;;;;;;8.43;3.58;;;6.30;99.90;;;;;;5074659;28;20191;-87
2021/04/22 05:25:25;;;;;;;10.15;3.88;;;6.20;99.90;;;;;;5076071;28;20198;-87
2021/04/22 05:27:51;;;;;;;8.52;3.35;;;;;;;;;;5076045;28;20191;-87
2021/04/22 05:30:18;;;;;;;11.00;4.68;;;;;;;;;;5067044;28;20673;-87
2021/04/22 05:32:44;;;;;;;10.35;4.05;;;6.00;99.90;;;;;;5065325;28;20207;-87
2021/04/22 05:35:12;;;;;;;12.02;5.07;;;6.60;99.90;;;;;;5067227;28;20203;-87
2021/04/22 05:37:38;;;;;;;12.73;4.00;;;6.50;99.90;;;;;;5068656;28;20226;-85
2021/04/22 05:40:10;;;;;;;11.35;4.30;;;6.30;99.90;;;;;;5066466;28;20229;-85
2021/04/22 05:42:36;;;;;;;7.50;4.78;;;6.20;99.90;;;;;;5061400;28;20187;-85
2021/04/22 05:45:04;;;;;;;9.32;3.38;;;6.40;99.90;;;;;;5060928;28;20209;-85
2021/04/22 05:47:32;;;;;;;14.48;4.53;;;6.40;99.90;;;;;;5060304;28;20207;-85
2021/04/22 05:49:58;;;;;;;18.30;4.25;;;6.20;99.90;;;;;;5063101;28;20223;-85
2021/04/22 05:52:25;;;;;;;11.48;4.07;;;6.10;99.90;;;;;;5071998;28;20237;-85
2021/04/22 05:54:51;;;;;;;13.65;4.63;;;6.40;99.90;;;;;;5073311;28;20207;-84
2021/04/22 05:57:18;;;;;;;15.48;3.55;;;6.30;99.90;;;;;;5074684;28;20211;-87
2021/04/22 05:59:44;;;;;;;9.05;3.60;;;;;;;;;;5076308;28;20210;-85
2021/04/22 06:02:11;;;;;;;8.68;3.60;;;;;;;;;;5072858;28;20207;-86
2021/04/22 06:04:38;;;;;;;11.88;4.63;;;;;;;;;;5072470;28;20266;-85
2021/04/22 06:07:04;;;;;;;10.95;3.70;;;6.50;99.90;;;;;;5070670;28;20203;-86
2021/04/22 06:09:30;;;;;;;8.20;3.67;;;6.40;99.90;;;;;;5075532;28;20258;-86
2021/04/22 06:11:56;;;;;;;8.73;3.67;;;6.60;99.90;;;;;;5073180;28;20241;-87
2021/04/22 06:14:23;;;;;;;9.45;4.28;;;6.70;99.90;;;;;;5077466;28;20265;-86
2021/04/22 06:16:50;;;;;;;11.25;4.22;;;6.40;99.90;;;;;;5075145;28;20203;-87
2021/04/22 06:19:16;;;;;;;16.73;3.63;;;6.20;99.90;;;;;;5075859;28;20226;-87
2021/04/22 06:21:42;;;;;;;8.05;3.92;;;6.90;99.90;;;;;;5072010;28;20211;-85
2021/04/22 06:24:09;;;;;;;10.35;3.80;;;6.80;99.90;;;;;;5074691;28;20575;-85
2021/04/22 06:26:36;;;;;;;8.40;3.90;;;6.70;99.90;;;;;;5073578;28;20217;-86
2021/04/22 06:29:04;;;;;;;5.30;3.13;;;7.00;99.90;;;;;;5075395;28;20234;-84
2021/04/22 06:31:32;;;;;;;12.48;3.28;;;;;;;;;;5071469;28;20245;-85
2021/04/22 06:34:01;;;;;;;16.25;4.22;;;7.00;99.90;;;;;;5071710;28;20191;-85
2021/04/22 06:36:27;;;;;;;14.90;4.30;;;6.90;99.90;;;;;;5071726;28;20516;-84
2021/04/22 06:38:53;;;;;;;8.57;2.95;;;7.00;99.90;;;;;;5073309;28;20227;-86
2021/04/22 06:41:19;;;;;;;8.75;4.55;;;6.90;99.90;;;;;;5070404;28;20207;-84
2021/04/22 06:43:46;;;;;;;5.25;2.75;;;7.10;99.90;;;;;;5066312;28;20199;-85
2021/04/22 06:46:12;;;;;;;12.50;3.90;;;7.10;99.90;;;;;;5070437;28;20187;-84
2021/04/22 06:48:39;;;;;;;9.23;2.80;;;7.10;99.90;;;;;;5065395;28;20582;-84
2021/04/22 06:51:08;;;;;;;6.35;3.13;;;;;;;;;;5064841;28;20203;-85
2021/04/22 06:53:34;;;;;;;8.52;3.75;;;7.00;99.90;;;;;;5064739;28;20206;-86
2021/04/22 06:56:01;;;;;;;17.88;4.10;;;6.90;99.90;;;;;;5063051;28;20217;-85
2021/04/22 06:58:27;;;;;;;8.32;3.30;;;7.50;99.90;;;;;;5063389;28;20239;-86
2021/04/22 07:00:54;;;;;;;10.30;3.67;;;7.00;99.90;;;;;;5065192;28;20210;-86
2021/04/22 07:03:21;;;;;;;16.38;3.83;;;7.60;99.90;;;;;;5062934;28;20210;-87
2021/04/22 07:05:49;;;;;;;11.82;3.47;;;7.20;99.90;;;;;;5062097;28;20227;-87
2021/04/22 07:08:16;;;;;;;9.90;4.18;;;7.30;99.90;;;;;;5063188;28;20234;-87
2021/04/22 07:10:43;;;;;;;12.57;4.25;;;;;;;;;;5062633;28;20180;-87
2021/04/22 07:13:10;;;;;;;12.65;3.65;;;7.30;99.90;;;;;;5061854;28;20437;-87
2021/04/22 07:15:37;;;;;;;7.80;4.10;;;7.20;99.90;;;;;;5066056;28;20202;-85
2021/04/22 07:18:12;;;;;;;17.35;4.95;;;7.40;99.90;;;;;;5064919;28;20230;-85
2021/04/22 07:21:04;;;;;;;11.77;4.57;;;;;;;;;;5062582;28;20229;-86
2021/04/22 07:23:56;;;;;;;16.45;4.95;;;;;;;;;;5055280;28;20206;-86
2021/04/22 07:31:56;;;;;;;18.70;4.60;;;;;;;;;;5059432;28;20206;-87
2021/04/22 07:34:26;;;;;;;13.90;4.78;;;;;;;;;;5063106;28;20230;-87
2021/04/22 07:37:09;;;;;;;16.48;4.25;;;;;;;;;;5063272;28;20203;-86
2021/04/22 07:39:44;;;;;;;14.43;4.20;;;;;;;;;;5108444;22;20234;-87
2021/04/22 07:42:19;;;;;;;17.20;4.80;;;;;;;;;;5061209;28;20187;-87
2021/04/22 07:44:49;;;;;;;16.70;3.85;;;;;;;;;;5064398;28;20410;-88
2021/04/22 07:47:17;;;;;;;7.60;2.90;;;;;;;;;;5063255;28;20268;-87
2021/04/22 07:49:44;;;;;;;11.25;4.15;;;;;;;;;;5065892;28;20508;-87
2021/04/22 07:52:10;;;;;;;10.07;3.13;;;7.80;99.90;;;;;;5091428;22;20230;-81
2021/04/22 07:54:38;;;;;;;11.57;3.65;;;8.50;99.90;;;;;;5074089;28;20209;-81
2021/04/22 07:57:04;;;;;;;14.93;4.00;;;7.90;99.90;;;;;;5076149;28;20324;-80
2021/04/22 07:59:31;;;;;;;12.60;3.75;;;;;;;;;;5076914;28;20221;-80
2021/04/22 08:01:57;;;;;;;10.10;3.38;;;7.70;99.90;;;;;;5075249;28;20234;-81
2021/04/22 08:04:23;;;;;;;10.45;3.08;;;8.20;99.90;;;;;;5073188;28;20621;-82
2021/04/22 08:06:50;;;;;;;9.53;3.13;;;7.90;99.90;;;;;;5066166;28;20195;-79
2021/04/22 08:09:16;;;;;;;12.95;3.75;;;8.60;99.90;;;;;;5065772;28;20433;-80
2021/04/22 08:11:43;;;;;;;6.38;3.55;;;8.30;99.90;;;;;;5069340;28;20235;-80
2021/04/22 08:14:09;;;;;;;7.15;3.70;;;8.30;99.90;;;;;;5070766;28;20199;-81
2021/04/22 08:16:35;;;;;;;7.63;2.57;;;7.80;99.90;;;;;;5075861;28;20226;-80
2021/04/22 08:19:04;;;;;;;10.98;2.78;;;8.20;99.90;;;;;;5068453;28;20477;-80
2021/04/22 08:21:31;;;;;;;6.20;2.97;;;8.00;99.90;;;;;;5072160;28;20195;-79
2021/04/22 08:23:57;;;;;;;10.35;2.83;;;8.30;99.90;;;;;;5078552;28;20266;-79
2021/04/22 08:26:23;;;;;;;11.85;3.30;;;8.20;99.90;;;;;;5078790;28;20225;-80
2021/04/22 08:28:51;;;;;;;9.82;3.53;;;8.30;99.90;;;;;;5079157;28;20187;-81
2021/04/22 08:31:22;;;;;;;3.90;2.30;;;8.80;99.90;;;;;;5079080;28;20199;-80
2021/04/22 08:33:49;;;;;;;7.47;3.13;;;8.60;99.90;;;;;;5078827;28;20413;-80
2021/04/22 08:36:15;;;;;;;11.55;3.30;;;8.60;99.90;;;;;;5079082;28;20437;-80
2021/04/22 08:38:42;;;;;;;9.40;3.30;;;9.20;99.90;;;;;;5078601;28;20277;-80
2021/04/22 08:41:12;;;;;;;8.63;2.70;;;9.00;99.90;;;;;;5076263;28;20442;-80
2021/04/22 08:43:38;;;;;;;9.23;2.90;;;9.00;99.90;;;;;;5072127;28;20472;-79
2021/04/22 08:46:07;;;;;;;8.83;3.00;;;9.00;99.90;;;;;;5070187;28;20441;-80
2021/04/22 08:48:34;;;;;;;14.97;5.33;;;9.00;99.90;;;;;;5071269;28;20449;-81
2021/04/22 08:51:01;;;;;;;14.93;4.00;;;9.30;99.90;;;;;;5070207;28;20472;-81
2021/04/22 08:53:30;;;;;;;9.70;3.17;;;8.80;99.90;;;;;;5072815;28;20528;-81
2021/04/22 08:55:58;;;;;;;6.97;2.97;;;9.20;99.90;;;;;;5066142;28;20450;-81
2021/04/22 08:58:24;;;;;;;13.47;3.30;;;;;;;;;;5065911;28;20477;-81
2021/04/22 09:00:54;;;;;;;11.73;2.70;;;8.80;99.90;;;;;;5067491;28;20433;-81
2021/04/22 09:03:21;;;;;;;7.97;2.87;;;8.90;99.90;;;;;;5068865;28;20480;-81
2021/04/22 09:05:48;;;;;;;7.47;3.70;;;8.90;99.90;;;;;;5067685;28;20476;-83
2021/04/22 09:08:14;;;;;;;8.60;3.60;;;8.90;99.90;;;;;;5066007;28;20437;-81
2021/04/22 09:10:41;;;;;;;6.00;2.90;;;9.00;99.90;;;;;;5065885;28;20515;-80
2021/04/22 09:13:11;;;;;;;8.53;3.90;;;8.70;99.90;;;;;;5072943;28;20805;-80
2021/04/22 09:15:39;;;;;;;5.83;3.67;;;8.90;99.90;;;;;;5072244;28;20930;-81
2021/04/22 09:18:08;;;;;;;9.00;2.93;;;8.70;99.90;;;;;;5071642;28;20485;-80
2021/04/22 09:20:38;;;;;;;7.70;2.87;;;9.50;99.90;;;;;;5075439;28;20430;-82
2021/04/22 09:23:17;;;;;;;3.90;2.47;;;9.60;99.90;;;;;;5071146;28;20464;-79
2021/04/22 09:25:44;;;;;;;11.37;3.97;;;9.30;99.90;;;;;;5073904;28;20452;-81
2021/04/22 09:28:10;;;;;;;5.93;2.93;;;9.70;99.90;;;;;;5073554;28;20438;-80
2021/04/22 09:30:40;;;;;;;5.53;2.87;;;9.60;99.90;;;;;;5068628;28;20449;-81
2021/04/22 09:33:07;;;;;;;8.27;3.53;;;10.00;99.90;;;;;;5071577;28;20469;-81
2021/04/22 09:35:33;;;;;;;9.30;3.70;;;;;;;;;;5072949;28;20463;-81
2021/04/22 09:38:00;;;;;;;6.57;2.53;;;9.40;99.90;;;;;;5077679;28;20587;-82
2021/04/22 09:40:30;;;;;;;11.40;3.27;;;9.80;99.90;;;;;;5078009;28;20442;-82
2021/04/22 09:42:59;;;;;;;10.37;2.80;;;9.90;99.90;;;;;;5077102;28;20472;-80
2021/04/22 09:45:29;;;;;;;12.20;3.00;;;9.80;99.90;;;;;;5074801;28;20910;-80
2021/04/22 09:47:55;;;;;;;10.60;3.60;;;10.10;99.90;;;;;;5076849;28;20433;-81
2021/04/22 09:50:25;;;;;;;4.30;3.00;;;10.10;99.90;;;;;;5076986;28;20445;-81
2021/04/22 09:52:54;;;;;;;8.10;2.63;;;10.20;99.90;;;;;;5076561;28;20991;-80
2021/04/22 09:55:25;;;;;;;5.57;2.63;;;10.00;99.90;;;;;;5076674;28;20449;-80
2021/04/22 09:57:51;;;;;;;7.97;2.70;;;9.80;99.90;;;;;;5077049;28;20469;-80
2021/04/22 10:00:31;;;;;;;14.53;3.97;;;10.10;99.90;;;;;;5078435;28;20479;-80
2021/04/22 10:02:59;;;;;;;6.13;2.90;;;10.30;99.90;;;;;;5077978;28;20452;-81
2021/04/22 10:05:27;;;;;;;5.13;2.93;;;10.60;99.90;;;;;;5078630;28;20878;-80
2021/04/22 10:08:05;;;;;;;11.10;4.60;;;11.10;99.90;;;;;;5074641;28;20520;-81
2021/04/22 10:10:33;;;;;;;24.97;13.23;;;10.70;99.90;;;;;;5075418;28;20434;-82
2021/04/22 10:13:00;;;;;;;6.83;3.40;;;10.40;99.90;;;;;;5075763;28;20473;-80
2021/04/22 10:15:27;;;;;;;9.03;3.67;;;10.90;99.90;;;;;;5076022;28;20434;-80
2021/04/22 10:17:54;;;;;;;3.33;2.37;;;10.70;99.90;;;;;;5078184;28;20489;-81
2021/04/22 10:20:21;;;;;;;6.20;2.80;;;10.60;98.50;;;;;;5077970;28;20441;-80
2021/04/22 10:22:49;;;;;;;5.57;2.50;;;10.40;97.20;;;;;;5076919;28;20445;-79
2021/04/22 10:25:18;;;;;;;8.20;2.47;;;11.10;99.90;;;;;;5072811;28;20429;-79
2021/04/22 10:27:47;;;;;;;4.87;2.30;;;11.00;99.90;;;;;;5069321;28;20449;-78
2021/04/22 10:30:16;;;;;;;12.07;2.30;;;10.80;98.10;;;;;;5065930;28;20448;-78
2021/04/22 10:32:44;;;;;;;3.67;2.10;;;10.10;99.90;;;;;;5066101;28;20476;-78
2021/04/22 10:35:12;;;;;;;6.43;2.77;;;10.60;99.90;;;;;;5065074;28;20808;-78
2021/04/22 10:37:40;;;;;;;14.57;3.47;;;10.30;97.60;;;;;;5065633;28;20507;-79
2021/04/22 10:40:08;;;;;;;7.33;2.93;;;10.50;99.90;;;;;;5069826;28;20519;-78
2021/04/22 10:42:36;;;;;;;12.13;3.03;;;10.70;96.60;;;;;;5072193;28;20608;-79
2021/04/22 10:45:04;;;;;;;7.10;2.40;;;10.60;96.30;;;;;;5072538;28;20446;-79
2021/04/22 10:47:32;;;;;;;4.40;2.13;;;10.10;99.90;;;;;;5073342;28;20441;-79
2021/04/22 10:49:58;;;;;;;4.83;2.13;;;10.30;99.90;;;;;;5075120;28;20452;-79
2021/04/22 10:52:25;;;;;;;3.33;1.77;;;10.30;99.90;;;;;;5072392;28;20477;-79
2021/04/22 10:54:52;;;;;;;7.07;2.03;;;10.30;94.30;;;;;;5072541;28;20461;-80
2021/04/22 10:57:21;;;;;;;3.33;1.90;;;10.70;94.70;;;;;;5073846;28;20430;-79
2021/04/22 10:59:48;;;;;;;5.73;1.87;;;10.00;93.70;;;;;;5069197;28;20488;-78
2021/04/22 11:02:17;;;;;;;4.80;2.27;;;10.80;99.90;;;;;;5065861;28;20461;-79
2021/04/22 11:04:45;;;;;;;10.53;1.80;;;10.70;93.50;;;;;;5069873;28;20449;-79
2021/04/22 11:07:16;;;;;;;5.50;3.20;;;10.90;99.90;;;;;;5076706;28;20441;-79
2021/04/22 11:09:43;;;;;;;3.47;1.63;;;11.40;99.90;;;;;;5069761;28;20441;-80
2021/04/22 11:12:11;;;;;;;11.90;3.23;;;11.10;92.60;;;;;;5069782;28;20473;-81
2021/04/22 11:14:45;;;;;;;11.10;3.03;;;11.20;93.40;;;;;;5059894;28;20510;-80
2021/04/22 11:17:12;;;;;;;8.33;2.37;;;11.20;99.90;;;;;;5064095;28;20425;-79
2021/04/22 11:19:41;;;;;;;3.20;1.80;;;11.20;99.90;;;;;;5067615;28;20491;-80
2021/04/22 11:22:14;;;;;;;5.33;2.87;;;11.30;99.90;;;;;;5063351;28;20465;-80
2021/04/22 11:24:50;;;;;;;10.17;2.20;;;11.50;99.90;;;;;;5061862;28;20426;-80
2021/04/22 11:27:17;;;;;;;5.20;2.00;;;11.40;99.90;;;;;;5061505;28;20437;-79
2021/04/22 11:29:46;;;;;;;8.33;2.30;;;11.40;99.90;;;;;;5060105;28;20456;-80
2021/04/22 11:32:18;;;;;;;7.40;1.70;;;11.10;91.60;;;;;;5063008;28;20465;-79
2021/04/22 11:34:45;;;;;;;7.00;3.03;;;11.50;99.90;;;;;;5059472;28;20507;-80
2021/04/22 11:37:17;;;;;;;2.77;1.60;;;11.70;99.90;;;;;;5059745;28;20450;-79
2021/04/22 11:39:44;;;;;;;2.67;1.70;;;11.80;99.90;;;;;;5058493;28;20477;-80
2021/04/22 11:42:10;;;;;;;2.60;1.77;;;11.30;99.90;;;;;;5058478;28;20473;-78
2021/04/22 11:44:38;;;;;;;1.93;1.20;;;11.10;99.90;;;;;;5060720;28;20460;-81
2021/04/22 11:47:15;;;;;;;4.57;1.97;;;11.70;99.90;;;;;;5062778;28;20448;-80
2021/04/22 11:49:42;;;;;;;7.00;2.70;;;11.50;89.70;;;;;;5064303;28;20422;-81
2021/04/22 11:52:19;;;;;;;3.73;1.87;;;12.10;90.20;;;;;;5064030;28;20499;-80
2021/04/22 11:54:47;;;;;;;6.40;2.30;;;12.10;89.60;;;;;;5068249;28;20432;-79
2021/04/22 11:57:14;;;;;;;8.87;2.50;;;11.50;99.90;;;;;;5069728;28;20823;-79
2021/04/22 11:59:41;;;;;;;2.67;1.30;;;10.90;87.80;;;;;;5071779;28;20563;-80
2021/04/22 12:02:09;;;;;;;4.20;2.37;;;12.10;86.10;;;;;;5065372;28;20472;-79
2021/04/22 12:04:41;;;;;;;5.50;2.07;;;12.50;99.90;;;;;;5061553;28;20810;-79
2021/04/22 12:07:11;;;;;;;6.73;2.53;;;12.50;88.00;;;;;;5063550;28;20453;-79
2021/04/22 12:09:41;;;;;;;3.50;2.17;;;12.10;87.30;;;;;;5064546;28;20441;-80
2021/04/22 12:12:13;;;;;;;5.17;2.30;;;11.70;99.90;;;;;;5068353;28;20531;-79
2021/04/22 12:14:40;;;;;;;3.20;1.50;;;11.60;88.60;;;;;;5073756;28;20445;-80
2021/04/22 12:17:07;;;;;;;6.00;2.43;;;11.00;99.90;;;;;;5071758;28;20449;-81
2021/04/22 12:19:36;;;;;;;4.50;1.87;;;11.10;99.90;;;;;;5068583;28;20530;-81
2021/04/22 12:22:03;;;;;;;4.57;2.00;;;;;;;;;;5071318;28;20466;-81
2021/04/22 12:24:30;;;;;;;5.43;2.03;;;11.10;91.90;;;;;;5072489;28;20475;-81
2021/04/22 12:26:57;;;;;;;3.30;1.60;;;11.60;91.50;;;;;;5072757;28;20449;-80
2021/04/22 12:29:24;;;;;;;3.80;1.63;;;;;;;;;;5076192;28;20456;-81
2021/04/22 12:31:53;;;;;;;5.60;2.17;;;11.50;99.90;;;;;;5072356;28;20519;-82
2021/04/22 12:34:22;;;;;;;5.70;2.97;;;12.00;90.00;;;;;;5069675;28;20513;-82
2021/04/22 12:36:54;;;;;;;4.27;2.33;;;11.30;99.90;;;;;;5068792;28;20442;-82
2021/04/22 12:39:29;;;;;;;3.30;1.67;;;11.60;99.90;;;;;;5067262;28;20481;-82
2021/04/22 12:42:12;;;;;;;6.93;2.20;;;11.10;85.80;;;;;;5071622;28;20469;-81
2021/04/22 12:44:40;;;;;;;5.27;2.60;;;11.30;99.90;;;;;;5068223;28;20437;-81
2021/04/22 12:47:09;;;;;;;5.53;2.30;;;11.30;87.60;;;;;;5066529;28;20441;-81
2021/04/22 12:49:36;;;;;;;6.50;2.40;;;11.60;87.00;;;;;;5065291;28;20445;-81
2021/04/22 12:52:03;;;;;;;5.37;2.23;;;11.60;86.20;;;;;;5067890;28;20473;-80
2021/04/22 12:54:30;;;;;;;7.47;2.20;;;11.50;99.90;;;;;;5073991;28;20449;-82
2021/04/22 12:57:12;;;;;;;10.97;3.80;;;11.70;87.40;;;;;;5074383;28;20454;-82
2021/04/22 12:59:46;;;;;;;3.50;2.00;;;11.70;99.90;;;;;;5077850;28;20470;-80
2021/04/22 13:02:15;;;;;;;10.53;2.50;;;11.50;99.90;;;;;;5069346;28;20971;-82
2021/04/22 13:04:52;;;;;;;5.73;2.57;;;11.50;87.90;;;;;;5064504;28;20441;-82
2021/04/22 13:07:30;;;;;;;4.53;2.10;;;11.70;99.90;;;;;;5064978;28;20441;-81
2021/04/22 13:10:02;;;;;;;9.23;3.00;;;;;;;;;;5063930;28;20432;-80
2021/04/22 13:12:33;;;;;;;5.73;2.70;;;11.10;91.80;;;;;;5063390;28;20466;-81
2021/04/22 13:15:04;;;;;;;8.00;3.20;;;;;;;;;;5064472;28;20838;-82